createdAt,value
2018-11-07T00:02:05.005Z,10.20
2018-11-07T00:04:33.635Z,10.10
2018-11-07T00:07:02.276Z,10.10
2018-11-07T00:09:30.961Z,10.10
2018-11-07T00:11:59.535Z,10.10
2018-11-07T00:14:28.139Z,10.00
2018-11-07T00:16:56.790Z,10.00
2018-11-07T00:19:25.452Z,10.00
2018-11-07T00:21:54.015Z,10.00
2018-11-07T00:24:22.874Z,10.00
2018-11-07T00:26:51.536Z,9.90
2018-11-07T00:29:20.072Z,9.90
2018-11-07T00:31:48.649Z,9.90
2018-11-07T00:34:17.342Z,9.90
2018-11-07T00:36:45.918Z,9.90
2018-11-07T00:39:14.418Z,9.90
2018-11-07T00:41:43.020Z,9.90
2018-11-07T00:44:11.585Z,9.90
2018-11-07T00:46:40.249Z,9.90
2018-11-07T00:49:08.892Z,9.90
2018-11-07T00:51:37.455Z,9.80
2018-11-07T00:54:06.101Z,9.90
2018-11-07T00:56:34.578Z,9.80
2018-11-07T00:59:03.043Z,9.90
2018-11-07T01:01:31.648Z,9.90
2018-11-07T01:04:00.362Z,9.90
2018-11-07T01:06:29.081Z,9.80
2018-11-07T01:08:57.561Z,9.80
2018-11-07T01:11:26.197Z,9.80
2018-11-07T01:13:54.699Z,9.80
2018-11-07T01:16:23.281Z,9.80
2018-11-07T01:18:52.045Z,9.70
2018-11-07T01:21:20.633Z,9.70
2018-11-07T01:23:49.191Z,9.70
2018-11-07T01:26:19.175Z,9.70
2018-11-07T01:28:47.697Z,9.60
2018-11-07T01:31:16.339Z,9.60
2018-11-07T01:33:44.921Z,9.60
2018-11-07T01:36:13.542Z,9.60
2018-11-07T01:38:42.200Z,9.50
2018-11-07T01:41:10.820Z,9.50
2018-11-07T01:43:39.512Z,9.50
2018-11-07T01:46:08.182Z,9.50
2018-11-07T01:48:36.820Z,9.40
2018-11-07T01:51:05.926Z,9.40
2018-11-07T01:53:34.549Z,9.40
2018-11-07T01:56:03.201Z,9.40
2018-11-07T01:58:31.961Z,9.40
2018-11-07T02:01:00.673Z,9.30
2018-11-07T02:03:29.167Z,9.30
2018-11-07T02:05:57.814Z,9.30
2018-11-07T02:08:31.576Z,9.30
2018-11-07T02:11:01.066Z,9.20
2018-11-07T02:13:29.832Z,9.20
2018-11-07T02:15:58.540Z,9.20
2018-11-07T02:18:27.231Z,9.10
2018-11-07T02:20:55.794Z,9.10
2018-11-07T02:23:24.407Z,9.10
2018-11-07T02:25:53.058Z,9.10
2018-11-07T02:28:21.560Z,9.10
2018-11-07T02:30:50.297Z,9.10
2018-11-07T02:33:18.938Z,9.00
2018-11-07T02:35:47.482Z,9.00
2018-11-07T02:38:16.120Z,9.00
2018-11-07T02:40:44.791Z,9.00
2018-11-07T02:43:13.490Z,9.00
2018-11-07T02:45:42.052Z,8.90
2018-11-07T02:48:10.924Z,8.90
2018-11-07T02:50:39.517Z,8.90
2018-11-07T02:53:08.166Z,8.90
2018-11-07T02:55:36.740Z,8.90
2018-11-07T02:58:05.485Z,8.90
2018-11-07T03:00:34.011Z,8.90
2018-11-07T03:03:02.574Z,8.80
2018-11-07T03:05:31.160Z,8.80
2018-11-07T03:07:59.818Z,8.80
2018-11-07T03:10:28.396Z,8.80
2018-11-07T03:12:57.106Z,8.70
2018-11-07T03:15:25.828Z,8.70
2018-11-07T03:17:54.544Z,8.70
2018-11-07T03:20:23.099Z,8.60
2018-11-07T03:22:51.744Z,8.50
2018-11-07T03:25:20.451Z,8.50
2018-11-07T03:27:49.059Z,8.40
2018-11-07T03:30:17.707Z,8.30
2018-11-07T03:32:46.364Z,8.20
2018-11-07T03:35:20.286Z,8.20
2018-11-07T03:37:48.988Z,8.10
2018-11-07T03:40:17.550Z,8.10
2018-11-07T03:42:46.184Z,8.10
2018-11-07T03:45:14.833Z,8.00
2018-11-07T03:47:43.683Z,8.10
2018-11-07T03:50:11.771Z,8.10
2018-11-07T03:52:39.859Z,8.10
2018-11-07T03:55:08.639Z,8.10
2018-11-07T03:57:37.414Z,8.10
2018-11-07T04:00:08.220Z,8.10
2018-11-07T04:02:37.146Z,8.10
2018-11-07T04:05:05.803Z,8.10
2018-11-07T04:07:34.386Z,8.10
2018-11-07T04:10:02.204Z,8.10
2018-11-07T04:12:30.242Z,8.10
2018-11-07T04:14:58.838Z,8.00
2018-11-07T04:17:27.585Z,8.00
2018-11-07T04:19:56.296Z,8.00
2018-11-07T04:22:24.261Z,7.90
2018-11-07T04:24:52.844Z,7.90
2018-11-07T04:27:20.604Z,7.90
2018-11-07T04:29:48.531Z,7.80
2018-11-07T04:32:17.231Z,7.80
2018-11-07T04:34:45.139Z,7.80
2018-11-07T04:37:14.150Z,7.70
2018-11-07T04:39:42.103Z,7.70
2018-11-07T04:42:10.249Z,7.70
2018-11-07T04:44:38.827Z,7.60
2018-11-07T04:47:07.767Z,7.60
2018-11-07T04:49:36.342Z,7.50
2018-11-07T04:52:04.176Z,7.40
2018-11-07T04:54:32.047Z,7.40
2018-11-07T04:56:59.810Z,7.40
2018-11-07T04:59:28.381Z,7.40
2018-11-07T05:01:59.175Z,7.40
2018-11-07T05:04:28.032Z,7.40
2018-11-07T05:06:56.858Z,7.50
2018-11-07T05:09:25.843Z,7.50
2018-11-07T05:11:54.160Z,7.40
2018-11-07T05:14:22.291Z,7.40
2018-11-07T05:16:50.205Z,7.30
2018-11-07T05:19:19.095Z,7.30
2018-11-07T05:21:47.699Z,7.20
2018-11-07T05:24:16.235Z,7.20
2018-11-07T05:26:45.120Z,7.10
2018-11-07T05:29:14.006Z,7.00
2018-11-07T05:31:43.578Z,7.00
2018-11-07T05:34:12.317Z,7.00
2018-11-07T05:36:41.363Z,7.00
2018-11-07T05:39:10.605Z,6.90
2018-11-07T05:41:39.211Z,7.00
2018-11-07T05:44:07.365Z,7.00
2018-11-07T05:46:36.048Z,7.00
2018-11-07T05:49:04.216Z,7.10
2018-11-07T05:51:33.040Z,7.20
2018-11-07T05:54:01.911Z,7.30
2018-11-07T05:56:30.527Z,7.40
2018-11-07T05:58:59.355Z,7.50
2018-11-07T06:01:27.208Z,7.60
2018-11-07T06:03:55.000Z,7.60
2018-11-07T06:06:23.639Z,7.70
2018-11-07T06:08:52.566Z,7.70
2018-11-07T06:11:21.169Z,7.80
2018-11-07T06:13:49.886Z,7.80
2018-11-07T06:16:18.185Z,7.80
2018-11-07T06:18:47.177Z,7.90
2018-11-07T06:21:15.902Z,7.90
2018-11-07T06:23:44.550Z,7.90
2018-11-07T06:26:12.543Z,8.00
2018-11-07T06:28:41.334Z,8.00
2018-11-07T06:31:09.170Z,8.10
2018-11-07T06:33:37.767Z,8.20
2018-11-07T06:36:06.872Z,8.20
2018-11-07T06:38:35.733Z,8.30
2018-11-07T06:41:04.500Z,8.40
2018-11-07T06:43:33.594Z,8.40
2018-11-07T06:46:02.173Z,8.50
2018-11-07T06:48:30.905Z,8.50
2018-11-07T06:50:59.765Z,8.60
2018-11-07T06:53:28.592Z,8.60
2018-11-07T06:55:57.296Z,8.70
2018-11-07T06:58:26.354Z,8.80
2018-11-07T07:00:54.970Z,8.80
2018-11-07T07:03:23.602Z,8.90
2018-11-07T07:05:52.442Z,9.00
2018-11-07T07:08:21.465Z,9.10
2018-11-07T07:10:50.173Z,9.20
2018-11-07T07:13:18.847Z,9.30
2018-11-07T07:15:46.759Z,9.40
2018-11-07T07:18:14.773Z,9.50
2018-11-07T07:20:43.764Z,9.60
2018-11-07T07:23:12.506Z,9.70
2018-11-07T07:25:41.491Z,9.70
2018-11-07T07:28:10.969Z,9.80
2018-11-07T07:30:39.668Z,9.90
2018-11-07T07:33:08.404Z,10.00
2018-11-07T07:35:36.929Z,10.00
2018-11-07T07:38:06.092Z,10.00
2018-11-07T07:40:34.690Z,10.10
2018-11-07T07:43:03.873Z,10.10
2018-11-07T07:45:32.542Z,10.20
2018-11-07T07:48:01.156Z,10.20
2018-11-07T07:50:29.883Z,10.20
2018-11-07T07:52:58.876Z,10.30
2018-11-07T07:55:27.601Z,10.30
2018-11-07T07:57:56.269Z,10.40
2018-11-07T08:00:25.722Z,10.50
2018-11-07T08:02:54.422Z,10.60
2018-11-07T08:05:22.524Z,10.70
2018-11-07T08:07:50.445Z,10.70
2018-11-07T08:10:19.568Z,10.80
2018-11-07T08:12:48.274Z,10.90
2018-11-07T08:15:17.686Z,10.90
2018-11-07T08:17:46.113Z,11.00
2018-11-07T08:20:14.995Z,11.00
2018-11-07T08:22:43.793Z,11.10
2018-11-07T08:25:12.582Z,11.10
2018-11-07T08:27:41.754Z,11.20
2018-11-07T08:30:10.704Z,11.20
2018-11-07T08:32:38.683Z,11.30
2018-11-07T08:35:08.665Z,11.30
2018-11-07T08:37:37.573Z,11.30
2018-11-07T08:40:09.185Z,11.30
2018-11-07T08:42:38.484Z,11.40
2018-11-07T08:45:07.882Z,11.50
2018-11-07T08:47:36.692Z,11.50
2018-11-07T08:50:07.637Z,11.60
2018-11-07T08:52:36.304Z,11.60
2018-11-07T08:55:06.084Z,11.70
2018-11-07T08:57:34.863Z,11.70
2018-11-07T09:00:03.827Z,11.80
2018-11-07T09:02:32.472Z,11.90
2018-11-07T09:05:01.039Z,11.90
2018-11-07T09:07:29.571Z,11.90
2018-11-07T09:09:58.106Z,11.90
2018-11-07T09:12:26.676Z,11.90
2018-11-07T09:14:55.276Z,12.00
2018-11-07T09:17:23.972Z,12.10
2018-11-07T09:19:52.958Z,12.10
2018-11-07T09:22:21.779Z,12.20
2018-11-07T09:24:50.393Z,12.20
2018-11-07T09:27:19.347Z,12.30
2018-11-07T09:29:48.243Z,12.40
2018-11-07T09:32:16.834Z,12.50
2018-11-07T09:34:45.618Z,12.50
2018-11-07T09:37:14.452Z,12.50
2018-11-07T09:39:43.207Z,12.50
2018-11-07T09:42:12.036Z,12.60
2018-11-07T09:44:40.613Z,12.70
2018-11-07T09:47:09.254Z,12.80
2018-11-07T09:49:37.838Z,12.80
2018-11-07T09:52:06.643Z,12.80
2018-11-07T09:54:35.204Z,12.90
2018-11-07T09:57:04.428Z,12.90
2018-11-07T09:59:33.088Z,12.90
2018-11-07T10:02:01.733Z,12.90
2018-11-07T10:04:30.653Z,13.00
2018-11-07T10:06:59.397Z,13.00
2018-11-07T10:09:28.141Z,13.10
2018-11-07T10:11:56.971Z,13.10
2018-11-07T10:14:25.563Z,13.10
2018-11-07T10:16:54.203Z,13.10
2018-11-07T10:19:22.204Z,13.20
2018-11-07T10:21:50.835Z,13.30
2018-11-07T10:24:19.771Z,13.30
2018-11-07T10:26:48.388Z,13.30
2018-11-07T10:29:17.477Z,13.40
2018-11-07T10:31:45.983Z,13.40
2018-11-07T10:34:14.681Z,13.50
2018-11-07T10:36:43.618Z,13.50
2018-11-07T10:39:12.309Z,13.50
2018-11-07T10:41:43.861Z,13.50
2018-11-07T10:44:12.547Z,13.50
2018-11-07T10:46:41.199Z,13.40
2018-11-07T10:49:10.127Z,13.30
2018-11-07T10:51:38.990Z,13.30
2018-11-07T10:54:07.762Z,13.40
2018-11-07T10:56:36.365Z,13.40
2018-11-07T10:59:05.388Z,13.50
2018-11-07T11:01:39.650Z,13.50
2018-11-07T11:04:08.203Z,13.60
2018-11-07T11:06:36.982Z,13.90
2018-11-07T11:09:07.351Z,14.30
2018-11-07T11:11:36.074Z,14.80
2018-11-07T11:14:04.826Z,15.30
2018-11-07T11:16:33.350Z,15.60
2018-11-07T11:19:02.184Z,15.80
2018-11-07T11:21:31.018Z,16.10
2018-11-07T11:23:59.717Z,16.30
2018-11-07T11:26:28.384Z,16.50
2018-11-07T11:28:57.018Z,16.40
2018-11-07T11:31:25.833Z,16.50
2018-11-07T11:33:54.563Z,16.50
2018-11-07T11:36:22.369Z,16.60
2018-11-07T11:38:50.262Z,16.70
2018-11-07T11:41:19.047Z,16.90
2018-11-07T11:43:47.555Z,17.10
2018-11-07T11:46:16.191Z,17.20
2018-11-07T11:48:44.875Z,17.30
2018-11-07T11:51:13.578Z,17.30
2018-11-07T11:53:42.089Z,17.50
2018-11-07T11:56:10.976Z,17.60
2018-11-07T11:58:39.837Z,17.60
2018-11-07T12:01:08.739Z,17.50
2018-11-07T12:03:37.499Z,17.30
2018-11-07T12:06:06.269Z,16.90
2018-11-07T12:08:34.919Z,16.40
2018-11-07T12:11:02.885Z,15.70
2018-11-07T12:13:32.148Z,15.20
2018-11-07T12:15:59.927Z,14.80
2018-11-07T12:18:27.732Z,14.40
2018-11-07T12:20:55.733Z,14.10
2018-11-07T12:23:24.795Z,13.90
2018-11-07T12:25:53.659Z,13.70
2018-11-07T12:28:22.323Z,13.50
2018-11-07T12:30:50.115Z,13.40
2018-11-07T12:33:18.664Z,13.40
2018-11-07T12:35:47.471Z,13.40
2018-11-07T12:38:16.422Z,13.30
2018-11-07T12:40:45.318Z,13.30
2018-11-07T12:43:14.149Z,13.20
2018-11-07T12:45:44.045Z,13.10
2018-11-07T12:48:12.679Z,13.10
2018-11-07T12:50:41.248Z,13.10
2018-11-07T12:53:09.888Z,13.00
2018-11-07T12:55:38.798Z,13.00
2018-11-07T12:58:08.799Z,12.90
2018-11-07T13:00:37.192Z,12.80
2018-11-07T13:03:05.980Z,12.80
2018-11-07T13:05:34.643Z,12.70
2018-11-07T13:08:03.173Z,12.70
2018-11-07T13:10:31.815Z,12.70
2018-11-07T13:13:00.768Z,12.70
2018-11-07T13:15:29.382Z,12.70
2018-11-07T13:17:58.039Z,12.70
2018-11-07T13:20:26.670Z,12.70
2018-11-07T13:22:55.796Z,12.70
2018-11-07T13:25:25.354Z,12.70
2018-11-07T13:27:54.172Z,12.70
2018-11-07T13:30:23.570Z,12.70
2018-11-07T13:32:55.649Z,12.70
2018-11-07T13:35:25.793Z,12.70
2018-11-07T13:37:57.123Z,12.70
2018-11-07T13:40:26.480Z,12.60
2018-11-07T13:42:54.525Z,12.60
2018-11-07T13:45:23.232Z,12.60
2018-11-07T13:47:52.274Z,12.50
2018-11-07T13:50:21.227Z,12.50
2018-11-07T13:52:49.852Z,12.50
2018-11-07T13:58:04.249Z,12.40
2018-11-07T14:00:32.841Z,12.40
2018-11-07T14:03:02.825Z,12.30
2018-11-07T14:05:31.729Z,12.30
2018-11-07T14:08:10.008Z,12.30
2018-11-07T14:10:43.409Z,12.20
2018-11-07T14:13:14.489Z,12.20
2018-11-07T14:15:46.165Z,12.10
2018-11-07T14:18:17.725Z,12.10
2018-11-07T14:20:51.382Z,12.00
2018-11-07T14:23:21.768Z,12.00
2018-11-07T14:25:54.930Z,11.90
2018-11-07T14:28:26.312Z,11.80
2018-11-07T14:30:55.248Z,11.80
2018-11-07T14:33:24.623Z,11.80
2018-11-07T14:35:53.275Z,11.70
2018-11-07T14:38:21.872Z,11.60
2018-11-07T14:40:50.481Z,11.60
2018-11-07T14:43:19.088Z,11.50
2018-11-07T14:45:47.680Z,11.50
2018-11-07T14:48:16.218Z,11.40
2018-11-07T14:50:44.984Z,11.40
2018-11-07T14:53:13.534Z,11.30
2018-11-07T14:55:42.094Z,11.30
2018-11-07T14:58:10.953Z,11.30
2018-11-07T15:00:39.669Z,11.20
2018-11-07T15:03:08.233Z,11.20
2018-11-07T15:05:36.947Z,11.10
2018-11-07T15:08:06.233Z,11.00
2018-11-07T15:10:34.919Z,10.90
2018-11-07T15:13:03.488Z,10.80
2018-11-07T15:15:32.114Z,10.80
2018-11-07T15:18:00.756Z,10.70
2018-11-07T15:20:29.643Z,10.60
2018-11-07T15:22:58.429Z,10.50
2018-11-07T15:25:27.170Z,10.50
2018-11-07T15:27:55.710Z,10.40
2018-11-07T15:30:24.277Z,10.30
2018-11-07T15:32:53.012Z,10.20
2018-11-07T15:35:21.582Z,10.10
2018-11-07T15:37:50.311Z,10.10
2018-11-07T15:40:19.947Z,10.00
2018-11-07T15:42:49.122Z,9.90
2018-11-07T15:45:19.342Z,9.80
2018-11-07T15:47:48.019Z,9.80
2018-11-07T15:50:21.950Z,9.70
2018-11-07T15:52:50.696Z,9.70
2018-11-07T15:55:19.303Z,9.60
2018-11-07T15:57:47.864Z,9.60
2018-11-07T16:00:17.738Z,9.50
2018-11-07T16:02:46.547Z,9.50
2018-11-07T16:05:16.323Z,9.40
2018-11-07T16:07:45.052Z,9.30
2018-11-07T16:10:15.116Z,9.30
2018-11-07T16:12:43.783Z,9.30
2018-11-07T16:15:14.162Z,9.20
2018-11-07T16:17:43.385Z,9.10
2018-11-07T16:20:13.132Z,9.10
2018-11-07T16:22:43.084Z,9.10
2018-11-07T16:25:11.690Z,9.00
2018-11-07T16:27:41.150Z,9.00
2018-11-07T16:30:12.916Z,9.00
2018-11-07T16:32:41.931Z,8.90
2018-11-07T16:35:11.969Z,8.90
2018-11-07T16:37:40.790Z,8.90
2018-11-07T16:40:12.432Z,8.80
2018-11-07T16:42:41.890Z,8.80
2018-11-07T16:45:12.038Z,8.80
2018-11-07T16:47:40.620Z,8.70
2018-11-07T16:50:10.929Z,8.70
2018-11-07T16:52:39.892Z,8.70
2018-11-07T16:55:08.678Z,8.70
2018-11-07T16:57:38.134Z,8.60
2018-11-07T17:00:13.073Z,8.60
2018-11-07T17:02:42.814Z,8.60
2018-11-07T17:05:12.470Z,8.50
2018-11-07T17:07:41.143Z,8.50
2018-11-07T17:10:11.222Z,8.50
2018-11-07T17:12:40.029Z,8.50
2018-11-07T17:15:08.718Z,8.50
2018-11-07T17:17:37.854Z,8.50
2018-11-07T17:20:08.027Z,8.50
2018-11-07T17:22:36.806Z,8.50
2018-11-07T17:25:07.123Z,8.40
2018-11-07T17:27:36.468Z,8.40
2018-11-07T17:30:04.487Z,8.40
2018-11-07T17:32:33.214Z,8.40
2018-11-07T17:35:01.080Z,8.30
2018-11-07T17:37:29.152Z,8.30
2018-11-07T17:39:58.637Z,8.30
2018-11-07T17:42:27.679Z,8.20
2018-11-07T17:44:56.798Z,8.20
2018-11-07T17:47:25.360Z,8.10
2018-11-07T17:49:55.485Z,8.10
2018-11-07T17:52:23.416Z,8.10
2018-11-07T17:54:51.198Z,8.10
2018-11-07T17:57:19.083Z,8.00
2018-11-07T17:59:47.824Z,8.00
2018-11-07T18:02:16.591Z,8.00
2018-11-07T18:04:45.219Z,8.00
2018-11-07T18:07:13.098Z,8.00
2018-11-07T18:09:41.634Z,7.90
2018-11-07T18:12:09.336Z,7.90
2018-11-07T18:14:37.304Z,7.90
2018-11-07T18:17:05.477Z,7.90
2018-11-07T18:19:33.754Z,7.90
2018-11-07T18:22:01.624Z,7.90
2018-11-07T18:24:30.306Z,7.90
2018-11-07T18:26:59.130Z,7.90
2018-11-07T18:29:27.113Z,7.90
2018-11-07T18:31:54.967Z,7.80
2018-11-07T18:34:22.821Z,7.80
2018-11-07T18:36:50.923Z,7.80
2018-11-07T18:39:19.618Z,7.80
2018-11-07T18:41:48.348Z,7.70
2018-11-07T18:44:16.212Z,7.70
2018-11-07T18:46:45.149Z,7.60
2018-11-07T18:49:14.141Z,7.60
2018-11-07T18:51:43.261Z,7.60
2018-11-07T18:54:12.346Z,7.50
2018-11-07T18:56:41.346Z,7.40
2018-11-07T18:59:10.493Z,7.40
2018-11-07T19:01:39.877Z,7.40
2018-11-07T19:04:09.541Z,7.30
2018-11-07T19:06:39.176Z,7.20
2018-11-07T19:09:09.376Z,7.20
2018-11-07T19:11:39.110Z,7.20
2018-11-07T19:14:09.142Z,7.20
2018-11-07T19:16:38.178Z,7.10
2018-11-07T19:19:07.157Z,7.10
2018-11-07T19:21:36.071Z,7.10
2018-11-07T19:24:05.436Z,7.00
2018-11-07T19:26:34.176Z,7.00
2018-11-07T19:29:02.780Z,6.90
2018-11-07T19:31:31.455Z,6.90
2018-11-07T19:34:00.571Z,6.80
2018-11-07T19:36:30.686Z,6.80
2018-11-07T19:39:00.878Z,6.70
2018-11-07T19:41:30.020Z,6.70
2018-11-07T19:43:59.013Z,6.70
2018-11-07T19:46:29.195Z,6.60
2018-11-07T19:48:59.491Z,6.50
2018-11-07T19:51:28.903Z,6.50
2018-11-07T19:53:59.586Z,6.40
2018-11-07T19:56:30.435Z,6.40
2018-11-07T19:59:00.857Z,6.40
2018-11-07T20:01:30.828Z,6.30
2018-11-07T20:03:59.856Z,6.30
2018-11-07T20:06:31.284Z,6.20
2018-11-07T20:09:02.149Z,6.20
2018-11-07T20:11:32.674Z,6.30
2018-11-07T20:14:01.872Z,6.20
2018-11-07T20:16:30.752Z,6.20
2018-11-07T20:18:59.970Z,6.10
2018-11-07T20:21:28.802Z,6.10
2018-11-07T20:23:57.898Z,6.00
2018-11-07T20:26:27.859Z,6.00
2018-11-07T20:28:57.154Z,6.00
2018-11-07T20:31:26.458Z,5.90
2018-11-07T20:33:56.536Z,5.90
2018-11-07T20:36:25.922Z,6.00
2018-11-07T20:38:54.037Z,6.00
2018-11-07T20:41:22.799Z,6.10
2018-11-07T20:43:51.074Z,6.10
2018-11-07T20:46:20.647Z,6.10
2018-11-07T20:48:48.458Z,6.10
2018-11-07T20:51:16.879Z,6.10
2018-11-07T20:53:46.077Z,6.10
2018-11-07T20:56:15.060Z,6.10
2018-11-07T20:58:43.673Z,6.10
2018-11-07T21:01:12.256Z,6.10
2018-11-07T21:03:40.858Z,6.10
2018-11-07T21:06:09.506Z,6.00
2018-11-07T21:08:38.358Z,6.00
2018-11-07T21:11:06.277Z,5.90
2018-11-07T21:13:34.943Z,5.90
2018-11-07T21:16:03.525Z,5.80
2018-11-07T21:18:32.158Z,5.80
2018-11-07T21:21:00.807Z,5.80
2018-11-07T21:23:29.420Z,5.80
2018-11-07T21:25:58.676Z,5.80
2018-11-07T21:28:27.254Z,5.90
2018-11-07T21:30:55.830Z,5.90
2018-11-07T21:33:24.367Z,5.80
2018-11-07T21:35:54.312Z,5.80
2018-11-07T21:38:22.953Z,5.90
2018-11-07T21:40:51.693Z,5.80
2018-11-07T21:43:20.983Z,5.90
2018-11-07T21:45:49.623Z,5.90
2018-11-07T21:48:18.229Z,6.00
2018-11-07T21:50:46.898Z,6.00
2018-11-07T21:53:14.624Z,6.10
2018-11-07T21:55:43.219Z,6.10
2018-11-07T21:58:11.801Z,6.10
2018-11-07T22:00:39.687Z,6.20
2018-11-07T22:03:07.516Z,6.20
2018-11-07T22:05:35.383Z,6.20
2018-11-07T22:08:03.350Z,6.30
2018-11-07T22:10:31.310Z,6.30
2018-11-07T22:12:59.099Z,6.40
2018-11-07T22:15:26.941Z,6.40
2018-11-07T22:17:54.741Z,6.40
2018-11-07T22:20:22.558Z,6.40
2018-11-07T22:22:50.319Z,6.40
2018-11-07T22:25:18.228Z,6.30
2018-11-07T22:27:46.089Z,6.30
2018-11-07T22:30:15.008Z,6.30
2018-11-07T22:32:42.792Z,6.20
2018-11-07T22:35:14.948Z,6.20
2018-11-07T22:37:44.791Z,6.10
2018-11-07T22:40:17.633Z,6.10
2018-11-07T22:42:46.183Z,6.10
2018-11-07T22:45:15.300Z,6.00
2018-11-07T22:47:43.961Z,6.00
2018-11-07T22:50:13.201Z,6.00
2018-11-07T22:52:42.233Z,6.00
2018-11-07T22:55:10.118Z,6.00
2018-11-07T22:57:38.093Z,6.00
2018-11-07T23:00:18.233Z,6.00
2018-11-07T23:02:47.168Z,5.90
2018-11-07T23:05:15.973Z,6.00
2018-11-07T23:07:46.198Z,6.00
2018-11-07T23:10:14.195Z,6.10
2018-11-07T23:12:42.098Z,6.10
2018-11-07T23:15:09.985Z,6.20
2018-11-07T23:17:38.064Z,6.20
2018-11-07T23:20:08.637Z,6.30
2018-11-07T23:22:37.399Z,6.30
2018-11-07T23:25:05.727Z,6.30
2018-11-07T23:27:33.619Z,6.40
2018-11-07T23:30:01.475Z,6.30
2018-11-07T23:32:29.315Z,6.30
2018-11-07T23:34:57.038Z,6.30
2018-11-07T23:37:24.754Z,6.20
2018-11-07T23:39:52.665Z,6.20
2018-11-07T23:42:20.500Z,6.10
2018-11-07T23:44:48.270Z,6.00
2018-11-07T23:47:15.987Z,6.00
2018-11-07T23:49:43.826Z,5.90
2018-11-07T23:52:14.600Z,5.80
2018-11-07T23:54:42.350Z,5.80
2018-11-07T23:57:10.149Z,5.70
2018-11-07T23:59:38.784Z,5.60
